GW0416 Weather Reports


time (UTC)temp
C
wind
direction
speed
KPH
gust
KPH
rain 1hr
cm
rain 24hr
cm
rain mn
cm
humidity
%
barometer
mb
20221207221519 -5 285 11.3 14.5 0.00 0.00 0.00 79 1013.3
20221207220010 -5 259 12.9 19.3 0.00 0.00 0.00 79 1012.9
20221207214522 -6 262 6.4 14.5 0.00 0.00 0.00 79 1013.0
20221207213013 -5 202 12.9 19.3 0.00 0.00 0.00 77 1013.0
20221207211511 -4 264 16.1 22.5 0.00 0.00 0.00 79 1012.7
20221207210010 -5 263 9.7 16.1 0.00 0.00 0.00 79 1012.5
20221207204510 -6 266 9.7 17.7 0.00 0.00 0.00 81 1012.8
20221207203013 -7 267 11.3 17.7 0.00 0.00 0.00 80 1012.9
20221207201512 -7 247 12.9 24.1 0.00 0.00 0.00 81 1013.0
20221207200010 -7 246 14.5 27.4 0.00 0.00 0.00 81 1012.9
20221207194513 -7 286 20.9 32.2 0.00 0.00 0.00 81 1012.2
20221207193013 -8 287 22.5 33.8 0.00 0.00 0.00 81 1012.2
20221207191520 -7 259 24.1 35.4 0.00 0.00 0.00 81 1012.4
20221207190015 -7 274 22.5 35.4 0.00 0.00 0.00 82 1012.2
20221207184517 -8 297 17.7 24.1 0.00 0.00 0.00 84 1012.6
20221207183010 -9 247 19.3 27.4 0.00 0.00 0.00 83 1012.6
20221207181513 -8 269 24.1 30.6 0.00 0.00 0.00 85 1012.7
20221207180012 -9 270 20.9 30.6 0.00 0.00 0.00 86 1012.7
20221207174512 -11 280 16.1 25.7 0.00 0.00 0.00 86 1013.0
20221207173011 -12 238 0.0 6.4 0.00 0.00 0.00 86 1013.0
20221207171510 -15 217 4.8 19.3 0.00 0.00 0.00 85 1012.8
20221207170010 -16 252 4.8 14.5 0.00 0.00 0.00 85 1012.6
20221207164518 -17 204 11.3 22.5 0.00 0.00 0.00 84 1012.3
20221207163012 -15 218 14.5 25.7 0.00 0.00 0.00 86 1012.2
20221207161515 -17 290 11.3 22.5 0.00 0.00 0.00 85 1011.6
20221207160016 -18 284 3.2 9.7 0.00 0.00 0.00 85 1011.6
20221207154513 -20 198 4.8 14.5 0.00 0.00 0.00 82 1011.6
20221207153024 -21 161 8.0 12.9 0.00 0.00 0.00 83 1011.8
20221207151512 -21 175 11.3 16.1 0.00 0.00 0.00 82 1011.7
20221207150015 -20 255 11.3 17.7 0.00 0.00 0.00 83 1011.2
20221207144512 -21 248 14.5 20.9 0.00 0.00 0.00 82 1011.3
20221207143012 -22 240 14.5 22.5 0.00 0.00 0.00 82 1010.9
20221207141512 -22 225 9.7 17.7 0.00 0.00 0.00 81 1011.1
20221207140013 -22 234 14.5 17.7 0.00 0.00 0.00 82 1010.8
20221207134530 -22 249 11.3 20.9 0.00 0.00 0.00 82 1011.2
20221207133012 -22 220 16.1 22.5 0.00 0.00 0.00 82 1011.3
20221207131512 -22 219 12.9 16.1 0.00 0.00 0.00 82 1011.1
20221207130011 -22 210 12.9 17.7 0.00 0.00 0.00 82 1010.8
20221207124512 -22 209 12.9 22.5 0.00 0.00 0.00 82 1010.9
20221207123011 -22 217 20.9 27.4 0.00 0.00 0.00 82 1010.8
20221207121513 -22 217 17.7 22.5 0.00 0.00 0.00 82 1010.9
20221207120012 -22 225 12.9 19.3 0.00 0.00 0.00 82 1011.1
20221207114522 -22 223 14.5 22.5 0.00 0.00 0.00 81 1010.9
20221207113012 -23 218 19.3 22.5 0.00 0.00 0.00 82 1011.1
20221207111511 -23 212 12.9 17.7 0.00 0.00 0.00 81 1011.5
20221207110012 -23 196 11.3 14.5 0.00 0.00 0.00 81 1011.7
20221207104511 -23 177 11.3 16.1 0.00 0.00 0.00 81 1011.7
20221207103012 -23 182 16.1 20.9 0.00 0.00 0.00 81 1011.8
20221207101512 -23 180 9.7 19.3 0.00 0.00 0.00 81 1012.1
20221207100015 -23 178 12.9 19.3 0.00 0.00 0.00 82 1012.5
20221207094531 -23 202 9.7 12.9 0.00 0.00 0.00 81 1012.7
20221207093011 -23 190 11.3 14.5 0.00 0.00 0.00 81 1012.7
20221207091513 -23 196 12.9 17.7 0.00 0.00 0.00 81 1012.9
20221207090011 -22 194 14.5 16.1 0.00 0.00 0.00 81 1012.9
20221207084514 -22 211 12.9 19.3 0.00 0.00 0.00 81 1013.0
20221207083014 -22 185 11.3 17.7 0.00 0.00 0.00 82 1013.0
20221207081512 -22 189 11.3 16.1 0.00 0.00 0.00 82 1013.3
20221207080011 -21 169 12.9 19.3 0.00 0.00 0.00 82 1013.4
20221207074513 -21 184 9.7 12.9 0.00 0.00 0.00 82 1013.6
20221207073011 -22 174 6.4 11.3 0.00 0.00 0.00 82 1013.7
20221207071511 -22 135 3.2 8.0 0.00 0.00 0.00 82 1013.6
20221207070013 -23 131 1.6 4.8 0.00 0.00 0.00 81 1013.7
20221207064512 -23 131 0.0 3.2 0.00 0.00 0.00 81 1014.0
20221207063012 -23 131 1.6 6.4 0.00 0.00 0.00 81 1014.1
20221207061510 -23 131 4.8 8.0 0.00 0.00 0.00 81 1014.2
20221207060015 -23 124 6.4 9.7 0.00 0.00 0.00 81 1014.3
20221207054511 -22 102 3.2 9.7 0.00 0.00 0.00 81 1014.4
20221207053018 -22 89 4.8 8.0 0.00 0.00 0.00 81 1014.6
20221207051513 -22 86 4.8 9.7 0.00 0.00 0.00 82 1014.7
20221207050010 -22 94 4.8 8.0 0.00 0.00 0.00 82 1014.6
20221207044512 -22 84 6.4 12.9 0.00 0.00 0.00 82 1014.6
20221207043011 -22 68 12.9 17.7 0.00 0.00 0.00 82 1014.6
20221207041511 -22 67 16.1 19.3 0.00 0.00 0.00 82 1014.6
20221207040010 -22 61 16.1 19.3 0.00 0.00 0.00 82 1014.5
20221207034516 -22 72 17.7 19.3 0.00 0.00 0.00 82 1014.3
20221207033011 -22 82 16.1 20.9 0.00 0.00 0.00 81 1014.3
20221207031511 -22 76 14.5 20.9 0.00 0.00 0.00 81 1014.3
20221207030011 -22 77 14.5 20.9 0.00 0.00 0.00 82 1014.5
20221207024510 -22 78 14.5 19.3 0.00 0.00 0.00 82 1014.5
20221207023010 -22 65 16.1 22.5 0.00 0.00 0.00 81 1014.3
20221207021512 -22 67 20.9 25.7 0.00 0.00 0.00 81 1014.0
20221207020011 -22 63 24.1 32.2 0.00 0.00 0.00 81 1014.1
20221207014513 -22 53 25.7 30.6 0.00 0.00 0.00 81 1014.0
20221207013013 -22 76 24.1 27.4 0.00 0.00 0.00 81 1013.6
20221207011513 -22 72 22.5 25.7 0.00 0.00 0.00 81 1013.5
20221207010015 -22 76 22.5 29.0 0.00 0.00 0.00 81 1013.5
20221207004514 -22 63 25.7 30.6 0.00 0.00 0.00 81 1013.5
20221207003017 -22 70 24.1 30.6 0.00 0.00 0.00 82 1013.4
20221207001513 -22 71 27.4 32.2 0.00 0.00 0.00 82 1013.4
20221207000019 -22 66 27.4 33.8 0.00 0.00 0.00 82 1013.4
20221206234511 -22 59 29.0 35.4 0.00 0.00 0.00 82 1013.3
20221206233011 -22 62 27.4 33.8 0.00 0.00 0.00 82 1013.1
20221206231513 -22 72 25.7 35.4 0.00 0.00 0.00 82 1013.1
20221206230014 -22 67 25.7 33.8 0.00 0.00 0.00 82 1013.1
20221206224512 -22 68 25.7 32.2 0.00 0.00 0.00 82 1012.9
20221206223017 -21 76 22.5 30.6 0.00 0.00 0.00 82 1012.7